ESMN weather

CLOSED Lund Airport
Lund, Skåne län, Sweden

Public forecast

Using degrees Celsius for public forecast. Weather courtesy of forecast.io.

METAR (pilot weather report)

Closest report is Malmö Sturup Airport, 10.5 nm (19.5 km) SSE. Retrieved 2019/09/17 05:20 UTC (35 minutes ago):

ESMS 170520Z 27018KT 9999 RA FEW038CB SCT048 10/06 Q1007

TAF (pilot weather forecast)

Forecast is more than 12 hours old.

Closest forecast is Malmö Sturup Airport, 10.5 nm (19.5 km) SSE. Retrieved 2019/09/16 00:33 UTC (1 day ago):

TAF ESMS 162302Z 1700/1724 27010KT 9999 SCT030 TEMPO 1700/1703 SCT020TCU TEMPO 1703/1716 29020G35KT 4000 SHRA BKN020CB TEMPO 1716/1720 FEW020CB